Time,TemperatureF,DewpointF,PressureIn,WindDirection,WindDirectionDegrees,WindSpeedMPH,WindSpeedGustMPH,Humidity,HourlyPrecipIn,Conditions,Clouds,dailyrainin,SoftwareType,DateUTC
2013-06-14 00:14:00,62.6,58.0,29.87,SSE,155,0.0,2.0,84,0.00,,,0.00,weatherlink.com 1.10,2013-06-14 07:14:00,
2013-06-14 00:29:00,63.0,58.0,29.87,SSE,155,1.0,2.0,84,0.00,,,0.00,weatherlink.com 1.10,2013-06-14 07:29:00,
2013-06-14 00:44:00,62.9,58.0,29.87,SSE,157,0.0,1.0,84,0.00,,,0.00,weatherlink.com 1.10,2013-06-14 07:44:00,
2013-06-14 00:59:00,62.5,58.0,29.87,SSE,158,0.0,0.0,85,0.00,,,0.00,weatherlink.com 1.10,2013-06-14 07:59:00,
2013-06-14 01:14:00,62.3,58.0,29.87,SSE,158,0.0,1.0,86,0.00,,,0.00,weatherlink.com 1.10,2013-06-14 08:14:00,
2013-06-14 01:29:00,62.3,58.0,29.87,SSE,158,0.0,1.0,86,0.00,,,0.00,weatherlink.com 1.10,2013-06-14 08:29:00,
2013-06-14 01:44:00,62.6,58.0,29.86,SSE,157,0.0,1.0,86,0.00,,,0.00,weatherlink.com 1.10,2013-06-14 08:44:00,
2013-06-14 02:00:00,63.2,59.0,29.86,ESE,114,2.0,4.0,85,0.00,,,0.00,weatherlink.com 1.10,2013-06-14 09:00:00,
2013-06-14 02:14:00,63.6,59.0,29.86,SSE,150,1.0,4.0,84,0.00,,,0.00,weatherlink.com 1.10,2013-06-14 09:14:00,
2013-06-14 02:29:00,63.9,59.0,29.86,WSW,240,0.0,3.0,84,0.00,,,0.00,weatherlink.com 1.10,2013-06-14 09:29:00,
2013-06-14 02:44:00,64.0,59.0,29.86,SE,134,0.0,2.0,83,0.00,,,0.00,weatherlink.com 1.10,2013-06-14 09:44:00,
2013-06-14 02:59:00,64.0,59.0,29.86,SW,234,3.0,4.0,83,0.00,,,0.00,weatherlink.com 1.10,2013-06-14 09:59:00,
2013-06-14 03:14:00,64.0,59.0,29.86,SE,139,0.0,2.0,84,0.00,,,0.00,weatherlink.com 1.10,2013-06-14 10:14:00,
2013-06-14 03:29:00,64.0,59.0,29.86,SE,134,0.0,6.0,83,0.00,,,0.00,weatherlink.com 1.10,2013-06-14 10:29:00,
2013-06-14 03:44:00,64.1,59.0,29.86,ESE,116,2.0,4.0,83,0.00,,,0.00,weatherlink.com 1.10,2013-06-14 10:44:00,
2013-06-14 03:59:00,64.1,59.0,29.86,SSW,199,1.0,4.0,83,0.00,,,0.00,weatherlink.com 1.10,2013-06-14 10:59:00,
2013-06-14 04:14:00,64.2,59.0,29.86,ESE,113,0.0,4.0,83,0.00,,,0.00,weatherlink.com 1.10,2013-06-14 11:14:00,
2013-06-14 04:29:00,64.3,59.0,29.86,SSE,150,2.0,6.0,83,0.00,,,0.00,weatherlink.com 1.10,2013-06-14 11:29:00,
2013-06-14 04:44:00,64.1,59.0,29.86,ESE,113,1.0,3.0,83,0.00,,,0.00,weatherlink.com 1.10,2013-06-14 11:44:00,
2013-06-14 04:59:00,64.0,59.0,29.86,WSW,239,0.0,4.0,83,0.00,,,0.00,weatherlink.com 1.10,2013-06-14 11:59:00,
2013-06-14 05:14:00,63.9,59.0,29.87,South,176,0.0,0.0,83,0.00,,,0.00,weatherlink.com 1.10,2013-06-14 12:14:00,
2013-06-14 05:29:00,64.0,59.0,29.87,ESE,117,2.0,3.0,83,0.00,,,0.00,weatherlink.com 1.10,2013-06-14 12:29:00,
2013-06-14 05:44:00,64.2,59.0,29.87,ENE,66,0.0,2.0,83,0.00,,,0.00,weatherlink.com 1.10,2013-06-14 12:44:00,
2013-06-14 05:59:00,64.4,59.0,29.87,SW,232,0.0,3.0,82,0.00,,,0.00,weatherlink.com 1.10,2013-06-14 12:59:00,
2013-06-14 06:14:00,64.5,59.0,29.87,SE,132,0.0,2.0,81,0.00,,,0.00,weatherlink.com 1.10,2013-06-14 13:14:00,
2013-06-14 06:29:00,64.5,58.0,29.87,ESE,113,3.0,5.0,80,0.00,,,0.00,weatherlink.com 1.10,2013-06-14 13:29:00,
2013-06-14 06:44:00,64.4,58.0,29.87,SE,143,1.0,6.0,79,0.00,,,0.00,weatherlink.com 1.10,2013-06-14 13:44:00,
2013-06-14 06:59:00,64.5,58.0,29.88,SE,141,0.0,1.0,79,0.00,,,0.00,weatherlink.com 1.10,2013-06-14 13:59:00,
2013-06-14 07:14:00,64.8,58.0,29.88,SSW,208,2.0,2.0,79,0.00,,,0.00,weatherlink.com 1.10,2013-06-14 14:14:00,
2013-06-14 07:29:00,65.0,58.0,29.88,SSE,158,0.0,2.0,78,0.00,,,0.00,weatherlink.com 1.10,2013-06-14 14:29:00,
2013-06-14 07:44:00,65.4,58.0,29.88,WSW,237,2.0,4.0,77,0.00,,,0.00,weatherlink.com 1.10,2013-06-14 14:44:00,
2013-06-14 07:59:00,65.6,58.0,29.89,SW,217,1.0,4.0,76,0.00,,,0.00,weatherlink.com 1.10,2013-06-14 14:59:00,
2013-06-14 08:14:00,65.8,58.0,29.89,East,90,3.0,6.0,75,0.00,,,0.00,weatherlink.com 1.10,2013-06-14 15:14:00,
2013-06-14 08:29:00,66.0,58.0,29.89,ESE,109,0.0,4.0,75,0.00,,,0.00,weatherlink.com 1.10,2013-06-14 15:29:00,
2013-06-14 08:44:00,66.3,58.0,29.89,SE,132,3.0,6.0,75,0.00,,,0.00,weatherlink.com 1.10,2013-06-14 15:44:00,
2013-06-14 08:59:00,66.5,58.0,29.89,SSW,208,3.0,5.0,75,0.00,,,0.00,weatherlink.com 1.10,2013-06-14 15:59:00,
2013-06-14 09:14:00,66.7,59.0,29.89,SSE,163,1.0,6.0,75,0.00,,,0.00,weatherlink.com 1.10,2013-06-14 16:14:00,
2013-06-14 09:29:00,67.0,58.0,29.89,SSE,148,3.0,5.0,74,0.00,,,0.00,weatherlink.com 1.10,2013-06-14 16:29:00,
2013-06-14 09:44:00,67.1,58.0,29.89,SSW,200,0.0,7.0,73,0.00,,,0.00,weatherlink.com 1.10,2013-06-14 16:44:00,
2013-06-14 09:59:00,67.1,59.0,29.89,SE,141,3.0,5.0,74,0.00,,,0.00,weatherlink.com 1.10,2013-06-14 16:59:00,
2013-06-14 10:14:00,67.6,59.0,29.89,SSE,150,3.0,6.0,73,0.00,,,0.00,weatherlink.com 1.10,2013-06-14 17:14:00,
2013-06-14 10:29:00,67.9,59.0,29.88,SSW,201,1.0,6.0,73,0.00,,,0.00,weatherlink.com 1.10,2013-06-14 17:29:00,
2013-06-14 10:44:00,68.1,59.0,29.88,SW,214,3.0,7.0,73,0.00,,,0.00,weatherlink.com 1.10,2013-06-14 17:44:00,
2013-06-14 10:59:00,68.4,59.0,29.89,SW,214,2.0,7.0,71,0.00,,,0.00,weatherlink.com 1.10,2013-06-14 17:59:00,
2013-06-14 11:14:00,68.8,59.0,29.89,SE,125,4.0,9.0,71,0.00,,,0.00,weatherlink.com 1.10,2013-06-14 18:14:00,
2013-06-14 11:29:00,69.4,59.0,29.89,WSW,249,2.0,8.0,69,0.00,,,0.00,weatherlink.com 1.10,2013-06-14 18:29:00,
2013-06-14 11:44:00,69.8,58.0,29.88,SSE,165,3.0,8.0,66,0.00,,,0.00,weatherlink.com 1.10,2013-06-14 18:44:00,
2013-06-14 11:59:00,70.9,58.0,29.88,West,264,5.0,7.0,64,0.00,,,0.00,weatherlink.com 1.10,2013-06-14 18:59:00,
2013-06-14 12:14:00,71.4,59.0,29.88,SW,226,5.0,8.0,64,0.00,,,0.00,weatherlink.com 1.10,2013-06-14 19:14:00,
2013-06-14 12:29:00,70.9,58.0,29.88,WSW,254,4.0,8.0,65,0.00,,,0.00,weatherlink.com 1.10,2013-06-14 19:29:00,
2013-06-14 12:44:00,72.0,60.0,29.87,South,175,5.0,9.0,65,0.00,,,0.00,weatherlink.com 1.10,2013-06-14 19:44:00,
2013-06-14 12:59:00,72.5,59.0,29.87,SW,235,2.0,9.0,63,0.00,,,0.00,weatherlink.com 1.10,2013-06-14 19:59:00,
2013-06-14 13:15:00,72.5,59.0,29.87,SW,220,2.0,10.0,62,0.00,,,0.00,weatherlink.com 1.10,2013-06-14 20:15:00,
2013-06-14 13:30:00,72.5,59.0,29.86,SSE,148,3.0,9.0,62,0.00,,,0.00,weatherlink.com 1.10,2013-06-14 20:30:00,
2013-06-14 13:45:00,72.4,58.0,29.86,WNW,295,6.0,8.0,61,0.00,,,0.00,weatherlink.com 1.10,2013-06-14 20:45:00,
2013-06-14 14:00:00,72.5,58.0,29.85,SW,229,3.0,9.0,61,0.00,,,0.00,weatherlink.com 1.10,2013-06-14 21:00:00,
2013-06-14 14:15:00,72.0,59.0,29.85,SSW,200,4.0,10.0,63,0.00,,,0.00,weatherlink.com 1.10,2013-06-14 21:15:00,
2013-06-14 14:30:00,72.6,59.0,29.85,SW,236,4.0,8.0,62,0.00,,,0.00,weatherlink.com 1.10,2013-06-14 21:30:00,
2013-06-14 14:45:00,71.9,59.0,29.84,South,186,4.0,11.0,63,0.00,,,0.00,weatherlink.com 1.10,2013-06-14 21:45:00,
2013-06-14 15:00:00,72.3,58.0,29.84,SSW,205,10.0,11.0,62,0.00,,,0.00,weatherlink.com 1.10,2013-06-14 22:00:00,
2013-06-14 15:15:00,72.3,58.0,29.84,SE,141,4.0,9.0,62,0.00,,,0.00,weatherlink.com 1.10,2013-06-14 22:15:00,
2013-06-14 15:30:00,71.7,58.0,29.84,SW,231,5.0,12.0,62,0.00,,,0.00,weatherlink.com 1.10,2013-06-14 22:30:00,
2013-06-14 15:45:00,72.2,58.0,29.84,WSW,248,6.0,9.0,62,0.00,,,0.00,weatherlink.com 1.10,2013-06-14 22:45:00,
2013-06-14 16:00:00,71.5,58.0,29.84,West,262,5.0,11.0,62,0.00,,,0.00,weatherlink.com 1.10,2013-06-14 23:00:00,
2013-06-14 16:15:00,71.6,58.0,29.83,SW,222,5.0,8.0,62,0.00,,,0.00,weatherlink.com 1.10,2013-06-14 23:15:00,
2013-06-14 16:30:00,71.1,58.0,29.83,WSW,239,6.0,9.0,63,0.00,,,0.00,weatherlink.com 1.10,2013-06-14 23:30:00,
2013-06-14 16:45:00,71.2,58.0,29.83,SW,222,8.0,8.0,63,0.00,,,0.00,weatherlink.com 1.10,2013-06-14 23:45:00,
2013-06-14 17:00:00,70.5,58.0,29.83,WSW,240,2.0,9.0,64,0.00,,,0.00,weatherlink.com 1.10,2013-06-15 00:00:00,
2013-06-14 17:15:00,70.4,58.0,29.82,West,274,6.0,8.0,64,0.00,,,0.00,weatherlink.com 1.10,2013-06-15 00:15:00,
2013-06-14 17:30:00,70.8,57.0,29.82,SSW,213,3.0,9.0,63,0.00,,,0.00,weatherlink.com 1.10,2013-06-15 00:30:00,
2013-06-14 17:45:00,70.4,58.0,29.82,SSE,152,3.0,8.0,65,0.00,,,0.00,weatherlink.com 1.10,2013-06-15 00:45:00,
2013-06-14 18:00:00,69.9,58.0,29.82,WSW,244,2.0,7.0,65,0.00,,,0.00,weatherlink.com 1.10,2013-06-15 01:00:00,
2013-06-14 18:15:00,70.1,58.0,29.82,SW,219,2.0,6.0,65,0.00,,,0.00,weatherlink.com 1.10,2013-06-15 01:15:00,
2013-06-14 18:30:00,68.8,57.0,29.82,SW,227,4.0,10.0,66,0.00,,,0.00,weatherlink.com 1.10,2013-06-15 01:30:00,
2013-06-14 18:45:00,68.3,57.0,29.82,SW,228,3.0,7.0,68,0.00,,,0.00,weatherlink.com 1.10,2013-06-15 01:45:00,
2013-06-14 19:00:00,68.2,58.0,29.82,SSW,207,3.0,7.0,69,0.00,,,0.00,weatherlink.com 1.10,2013-06-15 02:00:00,
2013-06-14 19:15:00,67.5,57.0,29.83,SSE,148,5.0,8.0,70,0.00,,,0.00,weatherlink.com 1.10,2013-06-15 02:15:00,
2013-06-14 19:30:00,67.0,57.0,29.83,ESE,121,3.0,7.0,71,0.00,,,0.00,weatherlink.com 1.10,2013-06-15 02:30:00,
2013-06-14 19:45:00,65.8,57.0,29.83,SW,226,2.0,7.0,73,0.00,,,0.00,weatherlink.com 1.10,2013-06-15 02:45:00,
2013-06-14 20:00:00,64.9,57.0,29.83,SSE,167,1.0,5.0,75,0.00,,,0.00,weatherlink.com 1.10,2013-06-15 03:00:00,
2013-06-14 20:15:00,64.5,57.0,29.84,WSW,237,0.0,4.0,77,0.00,,,0.00,weatherlink.com 1.10,2013-06-15 03:15:00,
2013-06-14 20:30:00,64.1,57.0,29.84,SW,228,2.0,6.0,78,0.00,,,0.00,weatherlink.com 1.10,2013-06-15 03:30:00,
2013-06-14 20:45:00,63.8,57.0,29.84,SE,131,2.0,4.0,79,0.00,,,0.00,weatherlink.com 1.10,2013-06-15 03:45:00,
2013-06-14 21:00:00,63.6,57.0,29.84,SE,136,3.0,4.0,79,0.00,,,0.00,weatherlink.com 1.10,2013-06-15 04:00:00,
2013-06-14 21:15:00,63.4,57.0,29.85,SW,224,1.0,5.0,80,0.00,,,0.00,weatherlink.com 1.10,2013-06-15 04:15:00,
2013-06-14 21:30:00,63.3,57.0,29.85,ESE,103,3.0,5.0,80,0.00,,,0.00,weatherlink.com 1.10,2013-06-15 04:30:00,
2013-06-14 21:45:00,63.2,57.0,29.86,SSW,201,2.0,4.0,80,0.00,,,0.00,weatherlink.com 1.10,2013-06-15 04:45:00,
2013-06-14 22:00:00,63.0,57.0,29.86,SSW,203,1.0,5.0,80,0.00,,,0.00,weatherlink.com 1.10,2013-06-15 05:00:00,
2013-06-14 22:15:00,62.8,57.0,29.86,SSW,194,1.0,4.0,80,0.00,,,0.00,weatherlink.com 1.10,2013-06-15 05:15:00,
2013-06-14 22:30:00,62.7,57.0,29.86,SW,220,0.0,2.0,81,0.00,,,0.00,weatherlink.com 1.10,2013-06-15 05:30:00,
2013-06-14 22:45:00,62.7,57.0,29.86,SE,135,0.0,2.0,81,0.00,,,0.00,weatherlink.com 1.10,2013-06-15 05:45:00,
2013-06-14 23:00:00,62.6,57.0,29.87,ESE,114,1.0,3.0,81,0.00,,,0.00,weatherlink.com 1.10,2013-06-15 06:00:00,
2013-06-14 23:15:00,62.6,56.0,29.86,SE,125,2.0,2.0,80,0.00,,,0.00,weatherlink.com 1.10,2013-06-15 06:15:00,
2013-06-14 23:30:00,62.4,56.0,29.86,SSE,148,1.0,4.0,80,0.00,,,0.00,weatherlink.com 1.10,2013-06-15 06:30:00,
2013-06-14 23:45:00,62.3,56.0,29.86,SE,132,2.0,4.0,80,0.00,,,0.00,weatherlink.com 1.10,2013-06-15 06:45:00,